الصفحة الرئيسية
METAR-TAF:

METAR-TAF

مطار :

Saint-Pierre, ريونيون

دائرة عرض: 21-20S, خط طول: 055-29E, ارتفاع: 52 متر

مراقبة الطقس الحالي

تاريخ ووقت الإصدار 31 دقيقة قبل الساعة 08:30UTC
ريح 22 عقدة من الجنوب الشرقي
درجة الحرارة 28°درجة مئوية
الرطوبة 62%
ضغط 1016 hPa
الرؤية 10 كم أو أكثر
غيوم قليلة على ارتفاع 6200 قدم

METAR: FMEP 260830Z AUTO 13022KT 9999 FEW062 28/20 Q1016 NOSIG

زمن: 13:01 (09:01 UTC)

توقعات

تاريخ ووقت الإصدار 1ساعة و 1 دقيقة قبل الساعة 08:00UTC
التوقعات صالحة من26 الساعة 09 UTC إلى 26 الساعة 18 UTC
ريح 22 عقدة من الجنوب الشرقي
الرؤية 10 كم أو أكثر
الغيوم لا تقل 1500 م ولا وجود لمزنة ركامية السحاب الأسود
أصبح
من 26 الساعة 16 UTC إلى 26 الساعة 18 UTC
ريح 6 عقدة من الشمال الشرقي

TAF: FMEP 260800Z 2609/2618 13022KT CAVOK BECMG 2616/2618 05006KT

أرصاد الطقس والتوقعات من أكثر من 4000 مطار (تقارير الطقس للمطار METAR والتنبؤ بالطقس بالمطارTAF).

المحطات المتاحة هي النقط الصفراء والحمراء على الخريطة.

حرك المؤشر فوق النقطة لمعرفة اسم المحطة.

ثم انقر لمعرفة أرصاد وتوقعات الطقس.

لتغيير الخارطة: اضغط على الأزرار الخضراء مع رمز الصليب الأسود للتكبير. على الزر الأخضر مع شرطة للتصغير، أو على الأسهم الخضراء للخرائط المجاورة.


METAR-TAF: